Time;durP1;ratioP1;P1;durP2;ratioP2;P2;SDS_P1;SDS_P2;PMS_P1;PMS_P2;Temp;Humidity;BMP_temperature;BMP_pressure;BME280_temperature;BME280_humidity;BME280_pressure;Samples;Min_cycle;Max_cycle;Signal;HPM_P1;HPM_P2
2022/08/10 00:00:22;;;;;;;1.88;1.30;;;20.40;46.30;;;;;;5081107;28;20048;-62
2022/08/10 00:02:52;;;;;;;5.97;1.20;;;20.40;46.30;;;;;;5086802;28;20032;-62
2022/08/10 00:05:19;;;;;;;2.45;1.35;;;20.30;46.80;;;;;;5080234;28;20024;-62
2022/08/10 00:07:45;;;;;;;1.63;1.30;;;20.30;46.60;;;;;;5082648;28;20386;-63
2022/08/10 00:10:13;;;;;;;2.78;1.35;;;20.20;46.80;;;;;;5086384;28;20050;-62
2022/08/10 00:12:39;;;;;;;6.05;1.30;;;20.10;47.10;;;;;;5082139;28;20548;-64
2022/08/10 00:15:07;;;;;;;6.15;1.48;;;20.10;47.10;;;;;;5078629;28;20055;-62
2022/08/10 00:17:33;;;;;;;1.42;1.15;;;20.10;47.40;;;;;;5088752;28;20029;-63
2022/08/10 00:19:58;;;;;;;4.80;1.20;;;20.00;47.30;;;;;;5080709;28;20025;-64
2022/08/10 00:22:24;;;;;;;1.38;1.20;;;20.00;47.50;;;;;;5080042;28;20660;-61
2022/08/10 00:24:50;;;;;;;1.23;1.10;;;19.90;47.50;;;;;;5079732;28;20046;-62
2022/08/10 00:27:15;;;;;;;5.40;1.48;;;19.90;47.40;;;;;;5085291;28;20025;-63
2022/08/10 00:29:41;;;;;;;3.03;1.48;;;19.90;47.60;;;;;;5080665;28;20036;-62
2022/08/10 00:32:07;;;;;;;7.00;1.48;;;19.80;47.80;;;;;;5084257;28;20499;-62
2022/08/10 00:34:33;;;;;;;3.35;1.27;;;19.70;47.70;;;;;;5081098;28;20041;-62
2022/08/10 00:37:00;;;;;;;1.42;1.33;;;19.70;47.80;;;;;;5085613;28;20025;-63
2022/08/10 00:39:27;;;;;;;1.52;1.30;;;19.60;48.10;;;;;;5083389;28;20035;-63
2022/08/10 00:41:53;;;;;;;1.85;1.40;;;19.50;48.10;;;;;;5084804;28;20025;-63
2022/08/10 00:44:18;;;;;;;4.47;1.50;;;19.50;48.30;;;;;;5095101;28;20025;-61
2022/08/10 00:46:44;;;;;;;5.18;1.27;;;19.40;48.50;;;;;;5088512;28;20038;-62
2022/08/10 00:49:10;;;;;;;5.15;1.60;;;19.40;48.50;;;;;;5080329;28;20155;-63
2022/08/10 00:51:35;;;;;;;2.72;1.50;;;19.30;48.60;;;;;;5083946;28;20039;-63
2022/08/10 00:54:01;;;;;;;1.80;1.48;;;19.30;48.90;;;;;;5099540;28;20020;-64
2022/08/10 00:56:27;;;;;;;2.22;1.50;;;19.20;49.10;;;;;;5087599;28;20056;-61
2022/08/10 00:58:53;;;;;;;1.92;1.50;;;19.20;49.20;;;;;;5066244;28;20036;-62
2022/08/10 01:01:19;;;;;;;1.40;1.30;;;19.10;49.20;;;;;;5064039;28;20040;-62
2022/08/10 01:03:45;;;;;;;1.63;1.50;;;19.10;49.20;;;;;;5062918;28;20058;-62
2022/08/10 01:06:36;;;;;;;2.75;1.50;;;19.00;49.30;;;;;;5061541;28;20029;-62
2022/08/10 01:09:15;;;;;;;2.38;1.35;;;19.00;50.40;;;;;;5066176;28;20075;-62
2022/08/10 01:11:48;;;;;;;2.90;1.38;;;19.00;50.10;;;;;;5072120;28;20033;-61
2022/08/10 01:14:35;;;;;;;1.83;1.67;;;18.90;49.90;;;;;;5065328;28;20040;-61
2022/08/10 01:17:27;;;;;;;4.43;1.27;;;18.90;50.60;;;;;;5065345;28;20033;-62
2022/08/10 01:20:15;;;;;;;1.95;1.55;;;18.80;50.90;;;;;;5061119;28;20036;-61
2022/08/10 01:22:55;;;;;;;2.25;1.60;;;18.80;50.70;;;;;;5073827;28;20048;-61
2022/08/10 01:25:39;;;;;;;1.95;1.70;;;18.80;51.00;;;;;;5054664;28;20473;-62
2022/08/10 01:28:29;;;;;;;1.50;1.40;;;18.70;50.70;;;;;;5061612;28;20494;-62
2022/08/10 01:30:59;;;;;;;1.30;1.20;;;18.70;50.50;;;;;;5072227;28;20031;-61
2022/08/10 01:33:31;;;;;;;3.47;1.48;;;18.60;50.40;;;;;;5046805;28;20055;-61
2022/08/10 01:36:00;;;;;;;2.75;1.55;;;18.60;50.70;;;;;;5072046;28;20060;-62
2022/08/10 01:38:29;;;;;;;4.00;1.50;;;18.60;50.50;;;;;;5055233;28;20077;-61
2022/08/10 01:41:05;;;;;;;4.15;1.55;;;18.50;50.70;;;;;;5074071;28;20059;-61
2022/08/10 01:43:33;;;;;;;1.85;1.48;;;18.40;51.40;;;;;;5067644;28;20032;-63
2022/08/10 01:46:02;;;;;;;2.00;1.40;;;18.40;51.00;;;;;;5063343;28;20025;-62
2022/08/10 01:48:33;;;;;;;1.60;1.40;;;18.40;51.20;;;;;;5075544;28;20037;-61
2022/08/10 01:51:31;;;;;;;3.83;1.52;;;18.30;51.40;;;;;;5072561;28;20079;-62
2022/08/10 01:54:03;;;;;;;3.13;1.50;;;18.30;52.10;;;;;;5061031;28;20044;-62
2022/08/10 01:56:38;;;;;;;3.08;1.50;;;18.30;51.50;;;;;;5072663;28;20045;-64
2022/08/10 01:59:30;;;;;;;2.75;1.40;;;18.20;51.70;;;;;;5075202;28;20052;-61
2022/08/10 02:02:01;;;;;;;2.38;1.40;;;18.20;52.30;;;;;;5063294;28;20048;-61
2022/08/10 02:04:28;;;;;;;1.50;1.30;;;18.10;51.60;;;;;;5063159;28;20033;-61
2022/08/10 02:06:56;;;;;;;1.98;1.48;;;18.10;51.50;;;;;;5077846;28;20035;-62
2022/08/10 02:09:26;;;;;;;1.85;1.42;;;18.10;51.80;;;;;;5051919;28;20383;-61
2022/08/10 02:11:54;;;;;;;2.25;1.40;;;18.10;52.20;;;;;;5063759;28;20044;-62
2022/08/10 02:14:22;;;;;;;2.03;1.50;;;18.10;52.00;;;;;;5067876;28;20021;-61
2022/08/10 02:16:50;;;;;;;2.42;1.50;;;18.00;51.80;;;;;;5076763;28;20056;-62
2022/08/10 02:19:20;;;;;;;2.92;1.40;;;18.00;52.00;;;;;;5070776;28;20029;-61
2022/08/10 02:21:48;;;;;;;2.13;1.45;;;17.90;52.10;;;;;;5039540;28;20041;-61
2022/08/10 02:24:15;;;;;;;2.58;1.48;;;17.90;52.70;;;;;;5060372;28;20120;-62
2022/08/10 02:26:43;;;;;;;1.50;1.40;;;17.90;52.20;;;;;;5074901;28;20025;-62
2022/08/10 02:29:12;;;;;;;5.07;1.40;;;17.90;52.40;;;;;;5067082;28;20024;-61
2022/08/10 02:31:40;;;;;;;1.77;1.40;;;17.80;52.50;;;;;;5068190;28;20021;-61
2022/08/10 02:34:09;;;;;;;1.85;1.60;;;17.80;52.30;;;;;;5067968;28;20074;-62
2022/08/10 02:36:37;;;;;;;2.20;1.48;;;17.80;52.60;;;;;;5046881;28;20044;-61
2022/08/10 02:39:06;;;;;;;4.22;1.45;;;17.80;52.60;;;;;;5064626;28;20037;-61
2022/08/10 02:41:53;;;;;;;3.83;1.80;;;17.80;52.70;;;;;;5056459;28;20433;-61
2022/08/10 02:44:27;;;;;;;1.77;1.42;;;17.70;53.20;;;;;;5070864;28;20032;-62
2022/08/10 02:47:06;;;;;;;2.03;1.58;;;17.70;52.80;;;;;;5064763;28;20029;-62
2022/08/10 02:49:45;;;;;;;3.25;1.55;;;17.70;53.00;;;;;;5061736;28;20056;-62
2022/08/10 02:52:19;;;;;;;2.90;1.73;;;17.60;52.90;;;;;;5073566;28;20067;-62
2022/08/10 02:54:54;;;;;;;2.05;1.40;;;17.60;53.20;;;;;;5055838;28;20659;-61
2022/08/10 02:57:27;;;;;;;1.60;1.50;;;17.60;53.30;;;;;;5073230;28;20048;-62
2022/08/10 02:59:58;;;;;;;2.35;1.42;;;17.50;53.50;;;;;;5057483;28;20024;-61
2022/08/10 03:02:33;;;;;;;2.95;1.80;;;17.50;53.10;;;;;;5059493;28;20050;-61
2022/08/10 03:05:00;;;;;;;;;;;17.50;53.30;;;;;;5064591;28;20081;-61
2022/08/10 03:07:31;;;;;;;1.52;1.42;;;17.50;52.70;;;;;;5069107;28;19920;-61
2022/08/10 03:09:59;;;;;;;2.50;1.65;;;17.40;52.70;;;;;;5066664;28;20052;-61
2022/08/10 03:12:26;;;;;;;6.32;1.70;;;17.40;52.90;;;;;;5064447;28;20037;-62
2022/08/10 03:14:53;;;;;;;2.30;1.38;;;17.30;53.20;;;;;;5066728;28;20060;-60
2022/08/10 03:17:20;;;;;;;2.53;1.75;;;17.30;53.30;;;;;;5073867;28;20086;-62
2022/08/10 03:19:46;;;;;;;1.95;1.48;;;17.30;53.40;;;;;;5069130;28;20074;-61
2022/08/10 03:22:14;;;;;;;2.97;1.92;;;17.20;53.50;;;;;;5062864;28;20047;-61
2022/08/10 03:24:42;;;;;;;2.40;1.88;;;17.20;53.70;;;;;;5062190;28;20037;-62
2022/08/10 03:27:09;;;;;;;2.75;2.05;;;17.20;53.90;;;;;;5063092;28;20055;-63
2022/08/10 03:29:36;;;;;;;2.58;1.65;;;17.20;53.90;;;;;;5070078;28;20036;-61
2022/08/10 03:32:04;;;;;;;2.85;1.70;;;17.20;53.90;;;;;;5076423;28;20043;-63
2022/08/10 03:34:31;;;;;;;2.88;1.65;;;17.20;54.70;;;;;;5076349;28;20317;-62
2022/08/10 03:36:57;;;;;;;2.88;1.60;;;17.10;54.10;;;;;;5061222;28;20024;-60
2022/08/10 03:39:23;;;;;;;3.20;1.75;;;17.10;54.00;;;;;;5049937;28;20041;-63
2022/08/10 03:41:54;;;;;;;6.13;1.90;;;17.10;54.20;;;;;;5066240;28;20089;-61
2022/08/10 03:44:24;;;;;;;1.70;1.60;;;17.10;54.60;;;;;;5064362;28;20024;-61
2022/08/10 03:46:52;;;;;;;2.28;1.75;;;17.00;54.40;;;;;;5061322;28;20032;-61
2022/08/10 03:49:19;;;;;;;4.93;1.55;;;17.00;54.40;;;;;;5068219;28;20083;-62
2022/08/10 03:51:48;;;;;;;2.22;1.70;;;17.00;54.30;;;;;;5079189;28;20443;-61
2022/08/10 03:54:17;;;;;;;7.40;2.08;;;17.00;54.50;;;;;;5073451;28;20297;-61
2022/08/10 03:56:43;;;;;;;2.30;1.83;;;16.90;54.60;;;;;;5078810;28;20052;-60
2022/08/10 03:59:13;;;;;;;1.75;1.60;;;16.90;54.60;;;;;;5062261;28;20564;-62
2022/08/10 04:01:44;;;;;;;3.15;1.98;;;16.90;55.00;;;;;;5080586;28;20050;-61
2022/08/10 04:04:10;;;;;;;2.97;1.83;;;16.90;55.00;;;;;;5085578;28;20094;-61
2022/08/10 04:06:37;;;;;;;3.40;1.55;;;16.90;54.80;;;;;;5080076;28;20028;-63
2022/08/10 04:09:03;;;;;;;4.93;1.90;;;16.80;54.80;;;;;;5080325;28;20036;-61
2022/08/10 04:11:29;;;;;;;2.90;1.83;;;16.80;55.00;;;;;;5081212;28;20107;-62
2022/08/10 04:13:54;;;;;;;5.75;2.10;;;16.80;55.00;;;;;;5081077;28;20021;-61
2022/08/10 04:16:20;;;;;;;3.50;1.65;;;16.80;55.00;;;;;;5082750;28;20036;-63
2022/08/10 04:18:46;;;;;;;1.73;1.35;;;16.70;55.00;;;;;;5066901;28;20050;-62
2022/08/10 04:21:17;;;;;;;4.95;1.75;;;16.70;55.10;;;;;;5075413;28;20569;-62
2022/08/10 04:23:46;;;;;;;1.67;1.38;;;16.70;55.70;;;;;;5065417;28;20041;-62
2022/08/10 04:26:12;;;;;;;4.95;1.67;;;16.70;55.40;;;;;;5078283;28;20052;-64
2022/08/10 04:28:39;;;;;;;2.22;1.58;;;16.60;55.20;;;;;;5081800;28;20031;-61
2022/08/10 04:31:07;;;;;;;2.65;1.65;;;16.60;55.40;;;;;;5080505;28;20021;-62
2022/08/10 04:33:36;;;;;;;2.15;1.42;;;16.60;56.00;;;;;;5079118;28;20029;-63
2022/08/10 04:36:04;;;;;;;1.48;1.38;;;16.60;55.40;;;;;;5080499;28;20063;-61
2022/08/10 04:38:32;;;;;;;1.95;1.50;;;16.60;55.50;;;;;;5092797;28;20078;-61
2022/08/10 04:40:58;;;;;;;2.10;1.40;;;16.60;55.50;;;;;;5081387;28;20039;-61
2022/08/10 04:43:24;;;;;;;2.20;1.58;;;16.60;55.50;;;;;;5080477;28;20036;-62
2022/08/10 04:45:49;;;;;;;5.25;1.75;;;16.60;55.60;;;;;;5079964;28;20035;-61
2022/08/10 04:48:15;;;;;;;1.98;1.55;;;16.60;55.60;;;;;;5078598;28;20016;-61
2022/08/10 04:50:41;;;;;;;2.53;1.50;;;16.60;55.70;;;;;;5062398;28;20096;-61
2022/08/10 04:53:06;;;;;;;2.58;1.50;;;16.60;55.90;;;;;;5086384;28;20115;-61
2022/08/10 04:55:32;;;;;;;2.13;1.60;;;16.70;56.00;;;;;;5064303;28;20044;-62
2022/08/10 04:57:58;;;;;;;3.70;1.77;;;16.70;56.00;;;;;;5060020;28;20033;-61
2022/08/10 05:00:23;;;;;;;2.00;1.63;;;16.80;56.10;;;;;;5062181;28;20093;-63
2022/08/10 05:02:50;;;;;;;3.15;1.70;;;16.80;56.10;;;;;;5062106;28;20747;-60
2022/08/10 05:05:16;;;;;;;3.08;1.65;;;16.90;56.20;;;;;;5078923;28;20078;-61
2022/08/10 05:07:42;;;;;;;3.92;1.83;;;17.00;56.10;;;;;;5080850;28;21927;-60
2022/08/10 05:10:08;;;;;;;1.88;1.67;;;17.10;56.00;;;;;;5079560;28;20043;-62
2022/08/10 05:12:35;;;;;;;3.47;2.78;;;17.20;55.90;;;;;;5082948;28;20036;-60
2022/08/10 05:15:01;;;;;;;2.70;2.08;;;17.40;55.90;;;;;;5083234;28;20033;-61
2022/08/10 05:17:27;;;;;;;2.20;1.70;;;17.50;55.70;;;;;;5083993;28;20071;-61
2022/08/10 05:19:52;;;;;;;4.22;1.55;;;17.60;55.70;;;;;;5082876;28;20028;-62
2022/08/10 05:22:18;;;;;;;2.05;1.40;;;17.70;55.40;;;;;;5083623;28;20051;-61
2022/08/10 05:24:44;;;;;;;2.13;1.42;;;17.90;55.40;;;;;;5082591;28;20032;-62
2022/08/10 05:27:09;;;;;;;5.63;1.50;;;18.00;55.30;;;;;;5065577;28;20041;-62
2022/08/10 05:29:35;;;;;;;2.25;1.20;;;18.20;55.00;;;;;;5081996;28;20036;-62
2022/08/10 05:32:01;;;;;;;3.83;1.23;;;18.30;54.70;;;;;;5081664;28;20099;-60
2022/08/10 05:34:28;;;;;;;3.92;1.25;;;18.50;54.50;;;;;;5082025;28;20402;-61
2022/08/10 05:36:54;;;;;;;2.63;1.52;;;18.60;54.30;;;;;;5084335;28;20059;-61
2022/08/10 05:39:22;;;;;;;1.33;1.00;;;18.80;53.80;;;;;;5082063;28;20024;-62
2022/08/10 05:41:52;;;;;;;2.05;1.20;;;19.00;53.60;;;;;;5084655;28;20055;-62
2022/08/10 05:44:21;;;;;;;4.50;1.42;;;19.20;53.30;;;;;;5081880;28;20028;-63
2022/08/10 05:46:48;;;;;;;2.40;1.25;;;19.40;53.00;;;;;;5084143;28;20091;-61
2022/08/10 05:49:14;;;;;;;2.47;1.00;;;19.60;52.50;;;;;;5074941;28;20088;-63
2022/08/10 05:51:40;;;;;;;4.13;0.93;;;19.80;51.90;;;;;;5084671;28;20051;-62
2022/08/10 05:54:13;;;;;;;3.42;1.13;;;20.00;51.70;;;;;;5083131;28;20025;-61
2022/08/10 05:56:41;;;;;;;2.67;1.30;;;20.20;51.60;;;;;;5065707;28;20585;-63
2022/08/10 05:59:08;;;;;;;2.65;1.20;;;20.30;50.90;;;;;;5065198;28;20039;-61
2022/08/10 06:01:39;;;;;;;2.83;1.00;;;20.50;50.70;;;;;;5082865;28;20123;-60
2022/08/10 06:04:08;;;;;;;4.80;1.40;;;20.70;50.50;;;;;;5065458;28;20507;-61
2022/08/10 06:06:35;;;;;;;1.55;0.95;;;20.90;50.40;;;;;;5085045;28;20024;-61
2022/08/10 06:09:01;;;;;;;2.50;0.98;;;21.00;49.90;;;;;;5080654;28;20060;-62
2022/08/10 06:11:29;;;;;;;8.10;1.17;;;21.20;49.80;;;;;;5084144;28;20032;-62
2022/08/10 06:16:42;;;;;;;3.88;1.25;;;21.50;49.00;;;;;;5084256;28;20043;-63
2022/08/10 06:19:11;;;;;;;5.53;1.10;;;21.70;48.50;;;;;;5082369;28;20067;-62
2022/08/10 06:21:38;;;;;;;2.83;1.10;;;21.80;48.40;;;;;;5076355;28;20767;-62
2022/08/10 06:24:08;;;;;;;2.33;1.05;;;22.00;48.30;;;;;;5073930;28;20047;-63
2022/08/10 06:26:33;;;;;;;2.15;1.00;;;22.10;48.00;;;;;;5084913;28;20554;-63
2022/08/10 06:29:05;;;;;;;9.40;1.30;;;22.30;47.90;;;;;;5070004;28;20032;-64
2022/08/10 06:31:35;;;;;;;2.88;1.00;;;22.40;47.60;;;;;;5083892;28;20028;-62
2022/08/10 06:34:02;;;;;;;1.70;1.05;;;22.50;46.90;;;;;;5064892;28;20029;-62
2022/08/10 06:36:29;;;;;;;2.53;1.50;;;22.70;46.70;;;;;;5084001;28;20047;-61
2022/08/10 06:38:55;;;;;;;2.03;1.08;;;22.80;46.80;;;;;;5068143;28;20028;-61
2022/08/10 06:41:24;;;;;;;2.35;1.10;;;22.90;46.40;;;;;;5082613;28;20129;-63
2022/08/10 06:43:59;;;;;;;4.38;1.05;;;23.00;46.40;;;;;;5078579;28;20032;-62
2022/08/10 06:46:26;;;;;;;2.60;1.15;;;23.10;46.00;;;;;;5083209;28;20027;-62
2022/08/10 06:48:58;;;;;;;0.95;0.75;;;23.30;46.00;;;;;;5077824;28;20101;-62
2022/08/10 06:51:30;;;;;;;5.15;1.00;;;23.30;45.70;;;;;;5065106;28;20102;-62
2022/08/10 06:54:00;;;;;;;2.35;1.10;;;23.50;45.30;;;;;;5082514;28;20021;-62
2022/08/10 06:56:28;;;;;;;4.30;1.20;;;23.60;45.40;;;;;;5082638;28;20060;-62
2022/08/10 06:59:02;;;;;;;1.60;1.08;;;23.70;45.20;;;;;;5064915;28;20029;-62
2022/08/10 07:01:33;;;;;;;5.35;1.20;;;23.80;45.20;;;;;;5066913;28;20056;-62
2022/08/10 07:04:07;;;;;;;2.90;1.13;;;23.90;44.60;;;;;;5028228;28;20431;-62
2022/08/10 07:06:35;;;;;;;1.58;1.02;;;24.00;44.50;;;;;;5059610;28;20494;-63
2022/08/10 07:09:02;;;;;;;3.15;1.20;;;24.00;44.40;;;;;;5062494;28;20104;-62
2022/08/10 07:11:30;;;;;;;3.90;0.95;;;24.10;44.20;;;;;;5078696;28;20028;-61
2022/08/10 07:13:57;;;;;;;3.13;1.23;;;24.20;43.90;;;;;;5070095;28;20079;-62
2022/08/10 07:16:27;;;;;;;2.08;1.00;;;24.30;44.00;;;;;;5063357;28;20183;-62
2022/08/10 07:18:55;;;;;;;4.40;1.02;;;24.40;43.40;;;;;;5060075;28;20033;-61
2022/08/10 07:21:25;;;;;;;4.43;1.17;;;24.50;43.40;;;;;;5064182;28;20100;-63
2022/08/10 07:23:52;;;;;;;2.15;1.05;;;24.50;43.10;;;;;;5080989;28;20035;-63
2022/08/10 07:26:19;;;;;;;4.85;1.23;;;24.60;42.90;;;;;;5064610;28;20024;-63
2022/08/10 07:28:49;;;;;;;2.05;1.20;;;24.70;43.00;;;;;;5064668;28;20124;-62
2022/08/10 07:31:17;;;;;;;1.55;0.90;;;24.80;43.00;;;;;;5065440;28;20029;-63
2022/08/10 07:33:45;;;;;;;3.28;1.40;;;24.90;42.90;;;;;;5082068;28;20032;-62
2022/08/10 07:36:12;;;;;;;2.58;1.02;;;25.00;42.80;;;;;;5059284;28;20045;-62
2022/08/10 07:38:38;;;;;;;2.35;0.98;;;25.00;42.80;;;;;;5066966;28;20044;-62
2022/08/10 07:41:06;;;;;;;2.20;1.10;;;25.10;42.50;;;;;;5059245;28;20020;-62
2022/08/10 07:43:39;;;;;;;8.77;2.10;;;25.20;42.00;;;;;;5062220;28;20044;-62
2022/08/10 07:46:11;;;;;;;2.42;1.42;;;25.30;42.10;;;;;;5059853;28;20369;-62
2022/08/10 07:48:44;;;;;;;3.25;0.88;;;25.30;41.60;;;;;;5061589;28;20367;-63
2022/08/10 07:51:11;;;;;;;17.85;1.50;;;25.40;41.50;;;;;;5062988;28;20106;-61
2022/08/10 07:53:42;;;;;;;2.88;1.05;;;25.50;41.10;;;;;;5078502;28;20070;-61
2022/08/10 07:56:09;;;;;;;1.45;0.90;;;25.60;40.90;;;;;;5065534;28;20057;-62
2022/08/10 07:58:48;;;;;;;3.08;1.15;;;25.60;41.10;;;;;;5078628;28;20075;-62
2022/08/10 08:01:16;;;;;;;1.80;1.00;;;25.70;40.50;;;;;;5078542;28;20036;-62
2022/08/10 08:03:43;;;;;;;6.40;1.10;;;25.80;40.70;;;;;;5061886;28;20032;-61
2022/08/10 08:06:11;;;;;;;4.20;1.08;;;25.80;40.70;;;;;;5078445;28;20029;-61
2022/08/10 08:08:39;;;;;;;1.33;0.80;;;25.90;40.60;;;;;;5061715;28;20044;-62
2022/08/10 08:11:05;;;;;;;3.00;1.08;;;26.00;40.50;;;;;;5075697;28;20021;-62
2022/08/10 08:13:32;;;;;;;4.45;1.25;;;26.10;40.40;;;;;;5078131;28;20029;-61
2022/08/10 08:16:03;;;;;;;3.28;1.30;;;26.20;40.00;;;;;;5078283;28;20025;-62
2022/08/10 08:18:30;;;;;;;1.83;1.08;;;26.20;38.80;;;;;;5077479;28;20064;-63
2022/08/10 08:20:57;;;;;;;5.93;1.10;;;26.30;39.20;;;;;;5077096;28;20028;-63
2022/08/10 08:23:24;;;;;;;7.88;1.30;;;26.40;39.30;;;;;;5080665;28;20032;-63
2022/08/10 08:25:51;;;;;;;7.45;0.98;;;26.40;38.90;;;;;;5079711;28;20578;-64
2022/08/10 08:28:17;;;;;;;3.55;0.85;;;26.50;39.20;;;;;;5079978;28;20059;-63
2022/08/10 08:30:44;;;;;;;1.33;0.85;;;26.50;39.20;;;;;;5079791;28;20052;-62
2022/08/10 08:33:12;;;;;;;2.03;1.05;;;26.60;38.60;;;;;;5080108;28;20028;-63
2022/08/10 08:35:38;;;;;;;5.00;1.23;;;26.70;38.40;;;;;;5079456;28;20064;-63
2022/08/10 08:38:05;;;;;;;2.80;1.13;;;26.70;38.40;;;;;;5079788;28;20036;-64
2022/08/10 08:40:38;;;;;;;9.18;2.20;;;26.80;38.30;;;;;;5079789;28;20035;-63
2022/08/10 08:43:30;;;;;;;3.28;1.02;;;26.80;37.90;;;;;;5043311;28;20040;-62
2022/08/10 08:46:38;;;;;;;1.58;0.98;;;26.90;37.00;;;;;;5076134;28;20052;-63
2022/08/10 08:49:23;;;;;;;2.35;0.85;;;26.90;37.20;;;;;;5068252;28;20025;-62
2022/08/10 08:52:15;;;;;;;3.70;1.08;;;27.00;37.20;;;;;;5084286;28;20107;-62
2022/08/10 08:54:56;;;;;;;1.45;1.00;;;27.00;37.50;;;;;;5068830;28;20075;-62
2022/08/10 08:57:27;;;;;;;3.22;0.80;;;27.10;37.40;;;;;;5080094;28;20119;-63
2022/08/10 09:00:12;;;;;;;4.97;1.27;;;27.20;37.10;;;;;;5056419;28;20036;-63
2022/08/10 09:02:49;;;;;;;4.90;0.90;;;27.30;36.40;;;;;;5085053;28;20026;-62
2022/08/10 09:05:46;;;;;;;1.58;0.93;;;27.40;36.90;;;;;;5074676;28;20116;-64
2022/08/10 09:08:52;;;;;;;2.53;0.90;;;27.50;36.00;;;;;;5051897;28;20021;-63
2022/08/10 09:11:18;;;;;;;3.13;0.73;;;27.60;35.80;;;;;;5044295;28;20033;-63
2022/08/10 09:13:56;;;;;;;9.25;0.98;;;27.70;36.50;;;;;;5074647;28;20496;-63
2022/08/10 09:16:31;;;;;;;6.55;0.80;;;27.80;35.80;;;;;;5063902;28;20049;-63
2022/08/10 09:19:05;;;;;;;1.52;0.70;;;27.80;35.60;;;;;;5062402;28;20029;-62
2022/08/10 09:21:56;;;;;;;2.08;0.80;;;27.90;35.70;;;;;;5062349;28;20039;-63
2022/08/10 09:24:52;;;;;;;1.83;0.75;;;28.00;33.10;;;;;;5047276;28;20675;-63
2022/08/10 09:27:21;;;;;;;1.08;0.70;;;28.10;34.70;;;;;;5046826;28;20037;-62
2022/08/10 09:30:00;;;;;;;1.88;0.60;;;28.20;34.70;;;;;;5045125;28;20025;-62
2022/08/10 09:32:50;;;;;;;2.47;0.82;;;28.30;34.20;;;;;;5065031;28;20051;-63
2022/08/10 09:35:30;;;;;;;4.82;0.90;;;28.40;34.60;;;;;;5052086;28;20118;-61
2022/08/10 09:38:23;;;;;;;1.05;0.60;;;28.40;34.20;;;;;;5049156;28;20029;-63
2022/08/10 09:41:03;;;;;;;4.10;0.70;;;28.50;32.70;;;;;;5056410;28;20021;-63
2022/08/10 09:43:57;;;;;;;2.00;0.70;;;28.60;33.60;;;;;;5084721;28;20025;-63
2022/08/10 09:46:51;;;;;;;1.80;0.80;;;28.70;32.60;;;;;;5056719;28;20143;-63
2022/08/10 09:49:30;;;;;;;0.68;0.65;;;28.70;32.70;;;;;;5056902;28;20056;-63
2022/08/10 09:52:05;;;;;;;1.30;0.80;;;28.80;33.30;;;;;;5063894;28;20036;-63
2022/08/10 09:54:37;;;;;;;3.72;1.27;;;28.80;32.20;;;;;;5064107;28;20055;-63
2022/08/10 09:57:28;;;;;;;1.83;0.80;;;28.90;32.90;;;;;;5060482;28;20048;-62
2022/08/10 10:00:01;;;;;;;2.03;0.80;;;28.90;32.90;;;;;;5078719;28;20040;-62
2022/08/10 10:02:47;;;;;;;2.00;0.80;;;28.90;32.30;;;;;;5082831;28;20032;-61
2022/08/10 10:05:31;;;;;;;1.05;0.80;;;28.90;32.40;;;;;;5075237;28;20021;-61
2022/08/10 10:08:00;;;;;;;;;;;29.00;32.60;;;;;;5085591;28;20035;-63
2022/08/10 10:10:37;;;;;;;1.45;0.73;;;29.10;32.60;;;;;;5062378;28;19917;-62
2022/08/10 10:13:10;;;;;;;4.55;0.80;;;29.10;32.20;;;;;;5064543;28;20052;-62
2022/08/10 10:16:04;;;;;;;2.50;0.90;;;29.10;32.10;;;;;;5057032;28;20041;-61
2022/08/10 10:18:58;;;;;;;4.93;0.68;;;29.20;31.30;;;;;;5059125;28;20037;-61
2022/08/10 10:21:37;;;;;;;2.13;1.00;;;29.30;32.00;;;;;;5037692;28;20465;-62
2022/08/10 10:24:19;;;;;;;1.50;0.65;;;29.30;31.50;;;;;;5066083;28;20057;-63
2022/08/10 10:27:17;;;;;;;2.42;0.93;;;29.40;31.10;;;;;;5063342;28;20090;-62
2022/08/10 10:29:56;;;;;;;4.15;0.60;;;29.40;30.60;;;;;;5058591;28;20107;-62
2022/08/10 10:32:31;;;;;;;4.20;0.80;;;29.50;30.70;;;;;;5046991;28;20367;-63
2022/08/10 10:35:22;;;;;;;3.55;1.10;;;29.60;31.10;;;;;;5072020;28;20029;-63
2022/08/10 10:37:54;;;;;;;1.55;0.80;;;29.60;31.00;;;;;;5069947;28;20056;-63
2022/08/10 10:40:24;;;;;;;3.20;1.35;;;29.70;31.30;;;;;;5072019;28;20471;-63
2022/08/10 10:43:06;;;;;;;1.60;0.70;;;29.80;31.30;;;;;;5064368;28;20029;-63
2022/08/10 10:46:00;;;;;;;2.17;0.65;;;29.80;30.20;;;;;;5074446;28;20032;-63
2022/08/10 10:48:42;;;;;;;4.82;0.80;;;29.90;30.90;;;;;;5055880;28;20025;-63
2022/08/10 10:51:42;;;;;;;3.13;1.00;;;30.00;30.60;;;;;;5061306;28;20076;-62
2022/08/10 10:54:09;;;;;;;3.83;1.17;;;30.00;31.10;;;;;;5054220;28;20136;-64
2022/08/10 10:56:53;;;;;;;2.28;0.90;;;30.00;30.90;;;;;;5070328;28;20064;-61
2022/08/10 10:59:33;;;;;;;5.60;0.98;;;30.00;30.10;;;;;;5079416;28;20111;-62
2022/08/10 11:02:23;;;;;;;1.20;0.80;;;30.00;29.70;;;;;;5073490;28;20032;-62
2022/08/10 11:05:16;;;;;;;1.30;0.80;;;30.00;30.00;;;;;;5075866;28;20024;-63
2022/08/10 11:07:48;;;;;;;1.17;0.70;;;30.10;30.80;;;;;;5079124;28;20062;-62
2022/08/10 11:10:19;;;;;;;2.88;0.70;;;30.10;29.30;;;;;;5078447;28;20021;-61
2022/08/10 11:13:15;;;;;;;2.65;0.80;;;30.20;28.70;;;;;;5081205;28;20039;-64
2022/08/10 11:16:04;;;;;;;3.80;0.95;;;30.30;28.40;;;;;;5079130;28;20032;-62
2022/08/10 11:18:32;;;;;;;0.80;0.70;;;30.40;29.60;;;;;;5081422;28;20446;-62
2022/08/10 11:21:30;;;;;;;2.17;0.65;;;30.40;30.00;;;;;;5080737;28;20038;-63
2022/08/10 11:24:22;;;;;;;5.75;0.70;;;30.50;29.40;;;;;;5063951;28;20044;-62
2022/08/10 11:27:31;;;;;;;1.73;0.75;;;30.70;29.60;;;;;;5080534;28;20036;-61
2022/08/10 11:30:05;;;;;;;6.68;1.17;;;30.80;29.10;;;;;;5017638;28;20041;-61
2022/08/10 11:32:52;;;;;;;1.23;0.60;;;30.90;29.90;;;;;;5019217;28;20039;-61
2022/08/10 11:35:24;;;;;;;3.67;0.65;;;31.00;29.40;;;;;;5017276;28;20050;-62
2022/08/10 11:38:10;;;;;;;2.30;0.82;;;31.10;29.60;;;;;;5019531;28;20551;-61
2022/08/10 11:41:21;;;;;;;3.05;0.80;;;31.20;29.00;;;;;;5017149;28;20030;-63
2022/08/10 11:44:00;;;;;;;1.73;0.80;;;31.20;27.90;;;;;;5020476;28;20042;-61
2022/08/10 11:46:30;;;;;;;1.30;0.60;;;31.20;28.20;;;;;;5018207;28;20042;-62
2022/08/10 11:49:08;;;;;;;2.97;0.63;;;31.10;28.60;;;;;;5019955;28;20053;-62
2022/08/10 11:51:57;;;;;;;1.15;0.60;;;31.10;27.50;;;;;;5019326;28;20044;-63
2022/08/10 11:54:30;;;;;;;2.40;0.80;;;31.10;28.00;;;;;;5019756;28;20109;-62
2022/08/10 11:56:59;;;;;;;2.47;0.82;;;31.10;27.70;;;;;;5017267;28;20129;-61
2022/08/10 12:02:14;;;;;;;1.75;0.85;;;31.20;28.30;;;;;;5017253;28;20081;-62
2022/08/10 12:04:46;;;;;;;3.15;0.98;;;31.20;27.30;;;;;;5018533;28;20038;-61
2022/08/10 12:07:12;;;;;;;4.82;0.93;;;31.20;27.60;;;;;;5044134;28;20388;-62
2022/08/10 12:09:39;;;;;;;1.23;0.85;;;31.30;27.30;;;;;;5078349;28;20041;-63
2022/08/10 12:12:06;;;;;;;3.35;1.00;;;31.30;27.40;;;;;;5067869;28;20036;-62
2022/08/10 12:14:45;;;;;;;3.25;0.70;;;31.20;26.30;;;;;;5056016;28;20122;-63
2022/08/10 12:17:44;;;;;;;1.90;0.90;;;31.20;26.10;;;;;;5059079;28;20049;-63
2022/08/10 12:20:23;;;;;;;2.63;0.70;;;31.30;26.60;;;;;;5050837;28;20048;-62
2022/08/10 12:22:58;;;;;;;2.20;0.60;;;31.30;26.30;;;;;;5064204;28;20029;-64
2022/08/10 12:25:49;;;;;;;1.38;0.85;;;31.40;25.20;;;;;;5066224;28;20025;-62
2022/08/10 12:28:23;;;;;;;1.30;1.00;;;31.40;26.10;;;;;;5063694;28;20091;-63
2022/08/10 12:30:54;;;;;;;3.90;0.80;;;31.40;26.90;;;;;;5058275;28;20088;-64
2022/08/10 12:33:25;;;;;;;4.45;0.88;;;31.50;26.50;;;;;;5063821;28;20379;-62
2022/08/10 12:36:09;;;;;;;1.60;0.80;;;31.60;26.10;;;;;;5061058;28;20104;-62
2022/08/10 12:38:48;;;;;;;2.10;0.90;;;31.60;25.80;;;;;;5056047;28;20037;-63
2022/08/10 12:41:41;;;;;;;2.88;0.70;;;31.60;25.70;;;;;;5061013;28;20481;-63
2022/08/10 12:44:11;;;;;;;0.80;0.70;;;31.70;25.10;;;;;;5058562;28;20033;-63
2022/08/10 12:46:51;;;;;;;4.30;0.98;;;31.60;26.10;;;;;;5069048;28;20055;-62
2022/08/10 12:49:33;;;;;;;3.22;0.80;;;31.70;25.90;;;;;;5084467;28;20053;-62
2022/08/10 12:52:23;;;;;;;1.13;0.73;;;31.80;26.00;;;;;;5066647;28;20029;-62
2022/08/10 12:54:51;;;;;;;1.42;0.50;;;31.80;26.00;;;;;;5048665;28;20028;-61
2022/08/10 12:57:21;;;;;;;1.63;0.63;;;31.90;26.20;;;;;;5063736;28;20057;-62
2022/08/10 13:00:14;;;;;;;1.48;0.60;;;32.00;26.30;;;;;;5064183;28;20037;-62
2022/08/10 13:02:43;;;;;;;7.23;0.73;;;32.00;26.30;;;;;;5058362;28;20037;-63
2022/08/10 13:05:12;;;;;;;0.88;0.82;;;32.10;26.50;;;;;;5043113;28;20131;-62
2022/08/10 13:07:41;;;;;;;0.80;0.60;;;32.20;26.30;;;;;;5064423;28;20101;-62
2022/08/10 13:10:10;;;;;;;1.27;0.60;;;32.30;26.20;;;;;;5062683;28;20029;-62
2022/08/10 13:12:47;;;;;;;1.90;0.70;;;32.30;25.80;;;;;;5063023;28;20434;-61
2022/08/10 13:15:46;;;;;;;1.98;0.65;;;32.40;25.80;;;;;;5047190;28;20068;-62
2022/08/10 13:18:15;;;;;;;0.88;0.60;;;32.50;25.70;;;;;;5015277;28;20048;-63
2022/08/10 13:20:41;;;;;;;0.80;0.57;;;32.50;24.90;;;;;;5060018;28;20043;-63
2022/08/10 13:23:23;;;;;;;0.70;0.70;;;32.50;24.80;;;;;;5064236;28;20088;-62